Palchem 1 — 9HA2097 — position and weather

sailwx.info

Track history (hours):
 
Tides and Currents Weather Stations Pressure Air Temp Water Temp Dewpoint Dewpoint Depression Visibility Wind Speed Wind Dir Waves Ship Positions

Palchem 1

Last reported at 2017-Aug-21 18:11 UTC. Time now 2017-Aug-23 13:39 UTC.
Position N 45°60' E 031°05'.

Length 143 m; draft 7.8 m.

Type: Ship. MMSI: 249955000.

Date/timePositionNaut miles runAvg speedWind from/ knotsBaromVisibWave heightAir tempDewpointWater temp
2017-Aug-21 18:11N 45°60' E 031°05'212.1
2017-Aug-21 18:00N 46°02' E 031°05'611.4
2017-Aug-21 17:30N 46°07' E 031°05'611.7
2017-Aug-21 17:00N 46°12' E 030°59'510.5
2017-Aug-21 16:30N 46°16' E 030°54'611.3
2017-Aug-21 16:00N 46°21' E 030°56'611.2
2017-Aug-21 15:30N 46°27' E 030°55'510.9
2017-Aug-21 15:01N 46°32' E 030°56'5 9.9
2017-Aug-21 14:30N 46°34' E 031°03'4 7.3
2017-Aug-21 14:00N 46°35' E 031°08'511.0
2017-Aug-21 13:30N 46°35' E 031°16'11 9.5
2017-Aug-21 12:24N 46°35' E 031°31'5 8.4
2017-Aug-21 11:52N 46°35' E 031°38'3 8.7
2017-Aug-21 11:30N 46°36' E 031°42'4 8.3
2017-Aug-21 11:00N 46°36' E 031°48'4 8.2
2017-Aug-21 10:30N 46°38' E 031°54'4 7.6
2017-Aug-21 10:00N 46°41' E 031°56'4 8.0
2017-Aug-21 09:31N 46°45' E 031°54'4 8.4
2017-Aug-21 09:00N 46°49' E 031°54'5 9.8
2017-Aug-21 08:30N 46°53' E 031°59'4 7.7
2017-Aug-21 08:00N 46°56' E 032°00'1 0.7
2017-Aug-21 07:13N 46°57' E 031°60'0 0.0
2017-Aug-21 06:52N 46°57' E 031°60'0 0.0
2017-Aug-21 05:52N 46°57' E 031°60'0 0.0
2017-Aug-21 05:28N 46°57' E 031°60'0 0.0
2017-Aug-21 04:54N 46°57' E 031°60'0 0.0
2017-Aug-21 04:20N 46°57' E 031°60'0 0.0
2017-Aug-21 03:56N 46°57' E 031°60'0 0.0
2017-Aug-21 03:26N 46°57' E 031°60'0 0.0
2017-Aug-21 02:56N 46°57' E 031°60'0 0.0
2017-Aug-21 02:23N 46°57' E 031°60'0 0.1
2017-Aug-21 01:44N 46°57' E 031°60'0 0.2
2017-Aug-21 01:26N 46°57' E 031°60'0 0.0
2017-Aug-21 00:53N 46°57' E 031°60'0 0.0
2017-Aug-21 00:29N 46°57' E 031°60'0 0.0
2017-Aug-20 23:58N 46°57' E 031°60'0 0.1
2017-Aug-20 23:30N 46°57' E 031°60'0 0.1
2017-Aug-20 22:52N 46°57' E 031°60'0 0.0
2017-Aug-20 22:29N 46°57' E 031°60'0 0.0
2017-Aug-20 21:58N 46°57' E 031°60'0 0.0
2017-Aug-20 21:30N 46°57' E 031°60'0 0.0
2017-Aug-20 20:51N 46°57' E 031°60'0 0.0
2017-Aug-20 20:27N 46°57' E 031°60'0 0.1
2017-Aug-20 20:00N 46°57' E 031°60'0 0.1
2017-Aug-20 19:30N 46°57' E 031°60'0 0.0
2017-Aug-20 18:54N 46°57' E 031°60'0 0.0
2017-Aug-20 18:24N 46°57' E 031°60'0 0.0
2017-Aug-20 18:00N 46°57' E 031°60'0 0.7
2017-Aug-20 17:30N 46°57' E 032°00'11 1.6
2017-Aug-20 10:37N 46°46' E 031°56'0 0.0
2017-Aug-20 09:07N 46°46' E 031°56'0 0.0
2017-Aug-20 08:46N 46°46' E 031°56'0 0.0
2017-Aug-20 08:29N 46°46' E 031°56'0 0.1
2017-Aug-20 07:48N 46°46' E 031°56'0 0.0
2017-Aug-20 07:30N 46°46' E 031°56'0 0.0
2017-Aug-20 06:57N 46°46' E 031°56'0 0.0
2017-Aug-20 06:24N 46°46' E 031°56'0 0.0
2017-Aug-20 05:51N 46°46' E 031°56'0 0.0
2017-Aug-20 05:27N 46°46' E 031°56'0 0.1
2017-Aug-20 04:40N 46°46' E 031°56'0 0.1
2017-Aug-20 04:20N 46°46' E 031°56'0 0.3
2017-Aug-20 04:00N 46°46' E 031°56'0 0.1
2017-Aug-20 02:30N 46°46' E 031°57'0 0.0
2017-Aug-20 00:54N 46°46' E 031°57'0 0.0
2017-Aug-19 22:29N 46°46' E 031°57'0 0.0
2017-Aug-19 21:38N 46°46' E 031°57'0 0.0
2017-Aug-19 18:00N 46°46' E 031°57'0 0.0
2017-Aug-19 17:00N 46°46' E 031°57'0 0.0
2017-Aug-19 16:24N 46°46' E 031°57'0 0.0
2017-Aug-19 13:57N 46°46' E 031°57'0 0.1
2017-Aug-19 13:25N 46°46' E 031°57'0 0.0
2017-Aug-19 12:58N 46°46' E 031°57'0 0.0
2017-Aug-19 12:25N 46°46' E 031°57'0 0.0
2017-Aug-19 11:58N 46°46' E 031°57'0 0.0
2017-Aug-19 11:03N 46°46' E 031°57'0 0.0
2017-Aug-19 11:01N 46°46' E 031°57'0 0.0
2017-Aug-19 10:24N 46°46' E 031°57'0 0.0
2017-Aug-19 09:56N 46°46' E 031°57'0 0.0
2017-Aug-19 09:19N 46°46' E 031°57'0 0.1
2017-Aug-19 08:51N 46°46' E 031°57'0 0.0
2017-Aug-19 08:18N 46°46' E 031°57'0 0.0
2017-Aug-19 07:59N 46°46' E 031°57'0 0.1
2017-Aug-19 07:29N 46°46' E 031°57'0 0.0
2017-Aug-19 04:23N 46°46' E 031°57'0 0.1
2017-Aug-19 04:00N 46°46' E 031°57'0 0.0
2017-Aug-19 02:39N 46°46' E 031°57'0 0.2
2017-Aug-19 02:19N 46°46' E 031°57'0 0.1
2017-Aug-19 01:43N 46°46' E 031°57'0 0.2
2017-Aug-19 01:27N 46°46' E 031°57'0 0.0
2017-Aug-19 00:20N 46°46' E 031°57'0 0.0
2017-Aug-18 23:58N 46°46' E 031°57'0 0.0
2017-Aug-18 22:22N 46°46' E 031°57'0 0.0
2017-Aug-18 20:32N 46°46' E 031°57'0 0.0
2017-Aug-18 20:30N 46°46' E 031°57'0 0.0
2017-Aug-18 20:00N 46°46' E 031°57'0 0.0
2017-Aug-18 19:16N 46°46' E 031°57'0 0.0
2017-Aug-18 18:07N 46°46' E 031°57'0 0.0
2017-Aug-18 15:06N 46°46' E 031°57'0 0.0
2017-Aug-18 13:30N 46°46' E 031°57'0 0.1
2017-Aug-18 12:54N 46°46' E 031°57'0 0.0
2017-Aug-18 11:05N 46°46' E 031°57'0 0.0
2017-Aug-18 05:42N 46°46' E 031°57'0 0.1
2017-Aug-18 05:18N 46°46' E 031°57'0 0.1
2017-Aug-18 04:40N 46°46' E 031°57'0 0.0
2017-Aug-18 04:28N 46°46' E 031°57'0 0.1
2017-Aug-18 04:00N 46°46' E 031°57'0 0.1
2017-Aug-18 03:29N 46°46' E 031°57'0 0.1
2017-Aug-18 02:57N 46°46' E 031°57'0 0.0
2017-Aug-18 02:30N 46°46' E 031°57'0 0.0
2017-Aug-18 02:00N 46°46' E 031°57'0 0.1
2017-Aug-18 01:14N 46°46' E 031°57'0 0.0
2017-Aug-18 00:15N 46°46' E 031°57'0 0.1
2017-Aug-17 23:53N 46°46' E 031°57'0 0.0
2017-Aug-17 19:46N 46°46' E 031°57'0 0.0
2017-Aug-17 19:29N 46°46' E 031°57'0 0.0
2017-Aug-17 18:59N 46°46' E 031°57'0 0.0
2017-Aug-17 17:31N 46°46' E 031°57'0 3.8
2017-Aug-17 17:30N 46°46' E 031°57'1 2.1
2017-Aug-17 16:58N 46°45' E 031°56'1 2.9
2017-Aug-17 16:30N 46°44' E 031°55'5 9.7
2017-Aug-17 16:00N 46°39' E 031°56'611.3
2017-Aug-17 15:30N 46°36' E 031°49'611.9
2017-Aug-17 15:00N 46°36' E 031°40'27 4.4
2017-Aug-17 08:53N 46°34' E 031°01'3 7.5
2017-Aug-17 08:30N 46°32' E 030°58'4 8.5
2017-Aug-17 08:00N 46°28' E 030°57'5 9.2
2017-Aug-17 07:30N 46°23' E 030°58'510.8
2017-Aug-17 07:01N 46°19' E 031°02'0 0.4
2017-Aug-17 06:26N 46°18' E 031°01'0 0.0
2017-Aug-17 05:58N 46°18' E 031°01'0 0.0
2017-Aug-17 05:27N 46°18' E 031°01'0 0.0
2017-Aug-17 05:00N 46°18' E 031°01'0 0.0
2017-Aug-17 04:24N 46°18' E 031°01'0 0.1
2017-Aug-17 03:59N 46°18' E 031°01'0 0.2
2017-Aug-17 03:30N 46°18' E 031°02'4 7.6
2017-Aug-17 03:00N 46°15' E 031°03'510.8
2017-Aug-17 02:30N 46°10' E 031°07'510.3
2017-Aug-17 02:00N 46°05' E 031°09'510.9
2017-Aug-17 01:30N 45°60' E 031°09'510.7
2017-Aug-17 01:00N 45°54' E 031°09'510.8
2017-Aug-17 00:30N 45°49' E 031°08'510.9
2017-Aug-17 00:00N 45°43' E 031°08'510.8
2017-Aug-16 23:30N 45°38' E 031°08'511.0
2017-Aug-16 23:00N 45°33' E 031°07'611.1
2017-Aug-16 22:30N 45°27' E 031°07'510.9
2017-Aug-16 22:00N 45°22' E 031°07'510.9
2017-Aug-16 21:30N 45°16' E 031°06'611.1
2017-Aug-16 21:00N 45°11' E 031°04'510.8
2017-Aug-16 20:30N 45°05' E 031°03'510.6
2017-Aug-16 20:00N 45°00' E 031°02'510.7
2017-Aug-16 19:30N 44°55' E 031°00'510.7
2017-Aug-16 19:00N 44°50' E 030°59'510.8
2017-Aug-16 18:30N 44°44' E 030°57'510.9
2017-Aug-16 18:00N 44°39' E 030°56'510.9
2017-Aug-16 17:30N 44°34' E 030°54'510.8
2017-Aug-16 17:00N 44°28' E 030°53'510.7
2017-Aug-16 16:30N 44°23' E 030°52'510.8
2017-Aug-16 16:00N 44°18' E 030°50'510.8
2017-Aug-16 15:30N 44°13' E 030°48'511.0
2017-Aug-16 15:00N 44°07' E 030°47'510.9
2017-Aug-16 14:30N 44°02' E 030°44'610.8
2017-Aug-16 13:59N 43°57' E 030°41'  
2017-Aug-12 20:08N 40°01' E 026°12'1 6.3
2017-Aug-12 20:00N 40°01' E 026°11'8 8.8
2017-Aug-12 19:04N 39°58' E 026°01'110.9
2017-Aug-12 18:59N 39°58' E 026°00'10510.8
2017-Aug-12 09:14N 38°25' E 024°55'210.8
2017-Aug-12 09:00N 38°23' E 024°53'510.4
2017-Aug-12 08:30N 38°19' E 024°50'5 9.7
2017-Aug-12 08:00N 38°14' E 024°47'5 9.5
2017-Aug-12 07:29N 38°10' E 024°45'  
Track history (hours):
 
Tides and Currents Weather Stations Pressure Air Temp Water Temp Dewpoint Dewpoint Depression Visibility Wind Speed Wind Dir Waves Ship Positions

Palchem 1

Last reported at 2017-Aug-21 18:11 UTC. Time now 2017-Aug-23 13:39 UTC.
Position N 45°60' E 031°05'.

Length 143 m; draft 7.8 m.

Type: Ship. MMSI: 249955000.

Date/timePositionNaut miles runAvg speedWind from/ knotsBaromVisibWave heightAir tempDewpointWater temp
2017-Aug-21 18:11N 45°60' E 031°05'212.1
2017-Aug-21 18:00N 46°02' E 031°05'611.4
2017-Aug-21 17:30N 46°07' E 031°05'611.7
2017-Aug-21 17:00N 46°12' E 030°59'510.5
2017-Aug-21 16:30N 46°16' E 030°54'611.3
2017-Aug-21 16:00N 46°21' E 030°56'611.2
2017-Aug-21 15:30N 46°27' E 030°55'510.9
2017-Aug-21 15:01N 46°32' E 030°56'5 9.9
2017-Aug-21 14:30N 46°34' E 031°03'4 7.3
2017-Aug-21 14:00N 46°35' E 031°08'511.0
2017-Aug-21 13:30N 46°35' E 031°16'11 9.5
2017-Aug-21 12:24N 46°35' E 031°31'5 8.4
2017-Aug-21 11:52N 46°35' E 031°38'3 8.7
2017-Aug-21 11:30N 46°36' E 031°42'4 8.3
2017-Aug-21 11:00N 46°36' E 031°48'4 8.2
2017-Aug-21 10:30N 46°38' E 031°54'4 7.6
2017-Aug-21 10:00N 46°41' E 031°56'4 8.0
2017-Aug-21 09:31N 46°45' E 031°54'4 8.4
2017-Aug-21 09:00N 46°49' E 031°54'5 9.8
2017-Aug-21 08:30N 46°53' E 031°59'4 7.7
2017-Aug-21 08:00N 46°56' E 032°00'1 0.7
2017-Aug-21 07:13N 46°57' E 031°60'0 0.0
2017-Aug-21 06:52N 46°57' E 031°60'0 0.0
2017-Aug-21 05:52N 46°57' E 031°60'0 0.0
2017-Aug-21 05:28N 46°57' E 031°60'0 0.0
2017-Aug-21 04:54N 46°57' E 031°60'0 0.0
2017-Aug-21 04:20N 46°57' E 031°60'0 0.0
2017-Aug-21 03:56N 46°57' E 031°60'0 0.0
2017-Aug-21 03:26N 46°57' E 031°60'0 0.0
2017-Aug-21 02:56N 46°57' E 031°60'0 0.0
2017-Aug-21 02:23N 46°57' E 031°60'0 0.1
2017-Aug-21 01:44N 46°57' E 031°60'0 0.2
2017-Aug-21 01:26N 46°57' E 031°60'0 0.0
2017-Aug-21 00:53N 46°57' E 031°60'0 0.0
2017-Aug-21 00:29N 46°57' E 031°60'0 0.0
2017-Aug-20 23:58N 46°57' E 031°60'0 0.1
2017-Aug-20 23:30N 46°57' E 031°60'0 0.1
2017-Aug-20 22:52N 46°57' E 031°60'0 0.0
2017-Aug-20 22:29N 46°57' E 031°60'0 0.0
2017-Aug-20 21:58N 46°57' E 031°60'0 0.0
2017-Aug-20 21:30N 46°57' E 031°60'0 0.0
2017-Aug-20 20:51N 46°57' E 031°60'0 0.0
2017-Aug-20 20:27N 46°57' E 031°60'0 0.1
2017-Aug-20 20:00N 46°57' E 031°60'0 0.1
2017-Aug-20 19:30N 46°57' E 031°60'0 0.0
2017-Aug-20 18:54N 46°57' E 031°60'0 0.0
2017-Aug-20 18:24N 46°57' E 031°60'0 0.0
2017-Aug-20 18:00N 46°57' E 031°60'0 0.7
2017-Aug-20 17:30N 46°57' E 032°00'11 1.6
2017-Aug-20 10:37N 46°46' E 031°56'0 0.0
2017-Aug-20 09:07N 46°46' E 031°56'0 0.0
2017-Aug-20 08:46N 46°46' E 031°56'0 0.0
2017-Aug-20 08:29N 46°46' E 031°56'0 0.1
2017-Aug-20 07:48N 46°46' E 031°56'0 0.0
2017-Aug-20 07:30N 46°46' E 031°56'0 0.0
2017-Aug-20 06:57N 46°46' E 031°56'0 0.0
2017-Aug-20 06:24N 46°46' E 031°56'0 0.0
2017-Aug-20 05:51N 46°46' E 031°56'0 0.0
2017-Aug-20 05:27N 46°46' E 031°56'0 0.1
2017-Aug-20 04:40N 46°46' E 031°56'0 0.1
2017-Aug-20 04:20N 46°46' E 031°56'0 0.3
2017-Aug-20 04:00N 46°46' E 031°56'0 0.1
2017-Aug-20 02:30N 46°46' E 031°57'0 0.0
2017-Aug-20 00:54N 46°46' E 031°57'0 0.0
2017-Aug-19 22:29N 46°46' E 031°57'0 0.0
2017-Aug-19 21:38N 46°46' E 031°57'0 0.0
2017-Aug-19 18:00N 46°46' E 031°57'0 0.0
2017-Aug-19 17:00N 46°46' E 031°57'0 0.0
2017-Aug-19 16:24N 46°46' E 031°57'0 0.0
2017-Aug-19 13:57N 46°46' E 031°57'0 0.1
2017-Aug-19 13:25N 46°46' E 031°57'0 0.0
2017-Aug-19 12:58N 46°46' E 031°57'0 0.0
2017-Aug-19 12:25N 46°46' E 031°57'0 0.0
2017-Aug-19 11:58N 46°46' E 031°57'0 0.0
2017-Aug-19 11:03N 46°46' E 031°57'0 0.0
2017-Aug-19 11:01N 46°46' E 031°57'0 0.0
2017-Aug-19 10:24N 46°46' E 031°57'0 0.0
2017-Aug-19 09:56N 46°46' E 031°57'0 0.0
2017-Aug-19 09:19N 46°46' E 031°57'0 0.1
2017-Aug-19 08:51N 46°46' E 031°57'0 0.0
2017-Aug-19 08:18N 46°46' E 031°57'0 0.0
2017-Aug-19 07:59N 46°46' E 031°57'0 0.1
2017-Aug-19 07:29N 46°46' E 031°57'0 0.0
2017-Aug-19 04:23N 46°46' E 031°57'0 0.1
2017-Aug-19 04:00N 46°46' E 031°57'0 0.0
2017-Aug-19 02:39N 46°46' E 031°57'0 0.2
2017-Aug-19 02:19N 46°46' E 031°57'0 0.1
2017-Aug-19 01:43N 46°46' E 031°57'0 0.2
2017-Aug-19 01:27N 46°46' E 031°57'0 0.0
2017-Aug-19 00:20N 46°46' E 031°57'0 0.0
2017-Aug-18 23:58N 46°46' E 031°57'0 0.0
2017-Aug-18 22:22N 46°46' E 031°57'0 0.0
2017-Aug-18 20:32N 46°46' E 031°57'0 0.0
2017-Aug-18 20:30N 46°46' E 031°57'0 0.0
2017-Aug-18 20:00N 46°46' E 031°57'0 0.0
2017-Aug-18 19:16N 46°46' E 031°57'0 0.0
2017-Aug-18 18:07N 46°46' E 031°57'0 0.0
2017-Aug-18 15:06N 46°46' E 031°57'0 0.0
2017-Aug-18 13:30N 46°46' E 031°57'0 0.1
2017-Aug-18 12:54N 46°46' E 031°57'0 0.0
2017-Aug-18 11:05N 46°46' E 031°57'0 0.0
2017-Aug-18 05:42N 46°46' E 031°57'0 0.1
2017-Aug-18 05:18N 46°46' E 031°57'0 0.1
2017-Aug-18 04:40N 46°46' E 031°57'0 0.0
2017-Aug-18 04:28N 46°46' E 031°57'0 0.1
2017-Aug-18 04:00N 46°46' E 031°57'0 0.1
2017-Aug-18 03:29N 46°46' E 031°57'0 0.1
2017-Aug-18 02:57N 46°46' E 031°57'0 0.0
2017-Aug-18 02:30N 46°46' E 031°57'0 0.0
2017-Aug-18 02:00N 46°46' E 031°57'0 0.1
2017-Aug-18 01:14N 46°46' E 031°57'0 0.0
2017-Aug-18 00:15N 46°46' E 031°57'0 0.1
2017-Aug-17 23:53N 46°46' E 031°57'0 0.0
2017-Aug-17 19:46N 46°46' E 031°57'0 0.0
2017-Aug-17 19:29N 46°46' E 031°57'0 0.0
2017-Aug-17 18:59N 46°46' E 031°57'0 0.0
2017-Aug-17 17:31N 46°46' E 031°57'0 3.8
2017-Aug-17 17:30N 46°46' E 031°57'1 2.1
2017-Aug-17 16:58N 46°45' E 031°56'1 2.9
2017-Aug-17 16:30N 46°44' E 031°55'5 9.7
2017-Aug-17 16:00N 46°39' E 031°56'611.3
2017-Aug-17 15:30N 46°36' E 031°49'611.9
2017-Aug-17 15:00N 46°36' E 031°40'27 4.4
2017-Aug-17 08:53N 46°34' E 031°01'3 7.5
2017-Aug-17 08:30N 46°32' E 030°58'4 8.5
2017-Aug-17 08:00N 46°28' E 030°57'5 9.2
2017-Aug-17 07:30N 46°23' E 030°58'510.8
2017-Aug-17 07:01N 46°19' E 031°02'0 0.4
2017-Aug-17 06:26N 46°18' E 031°01'0 0.0
2017-Aug-17 05:58N 46°18' E 031°01'0 0.0
2017-Aug-17 05:27N 46°18' E 031°01'0 0.0
2017-Aug-17 05:00N 46°18' E 031°01'0 0.0
2017-Aug-17 04:24N 46°18' E 031°01'0 0.1
2017-Aug-17 03:59N 46°18' E 031°01'0 0.2
2017-Aug-17 03:30N 46°18' E 031°02'4 7.6
2017-Aug-17 03:00N 46°15' E 031°03'510.8
2017-Aug-17 02:30N 46°10' E 031°07'510.3
2017-Aug-17 02:00N 46°05' E 031°09'510.9
2017-Aug-17 01:30N 45°60' E 031°09'510.7
2017-Aug-17 01:00N 45°54' E 031°09'510.8
2017-Aug-17 00:30N 45°49' E 031°08'510.9
2017-Aug-17 00:00N 45°43' E 031°08'510.8
2017-Aug-16 23:30N 45°38' E 031°08'511.0
2017-Aug-16 23:00N 45°33' E 031°07'611.1
2017-Aug-16 22:30N 45°27' E 031°07'510.9
2017-Aug-16 22:00N 45°22' E 031°07'510.9
2017-Aug-16 21:30N 45°16' E 031°06'611.1
2017-Aug-16 21:00N 45°11' E 031°04'510.8
2017-Aug-16 20:30N 45°05' E 031°03'510.6
2017-Aug-16 20:00N 45°00' E 031°02'510.7
2017-Aug-16 19:30N 44°55' E 031°00'510.7
2017-Aug-16 19:00N 44°50' E 030°59'510.8
2017-Aug-16 18:30N 44°44' E 030°57'510.9
2017-Aug-16 18:00N 44°39' E 030°56'510.9
2017-Aug-16 17:30N 44°34' E 030°54'510.8
2017-Aug-16 17:00N 44°28' E 030°53'510.7
2017-Aug-16 16:30N 44°23' E 030°52'510.8
2017-Aug-16 16:00N 44°18' E 030°50'510.8
2017-Aug-16 15:30N 44°13' E 030°48'511.0
2017-Aug-16 15:00N 44°07' E 030°47'510.9
2017-Aug-16 14:30N 44°02' E 030°44'610.8
2017-Aug-16 13:59N 43°57' E 030°41'  
2017-Aug-12 20:08N 40°01' E 026°12'1 6.3
2017-Aug-12 20:00N 40°01' E 026°11'8 8.8
2017-Aug-12 19:04N 39°58' E 026°01'110.9
2017-Aug-12 18:59N 39°58' E 026°00'10510.8
2017-Aug-12 09:14N 38°25' E 024°55'210.8
2017-Aug-12 09:00N 38°23' E 024°53'510.4
2017-Aug-12 08:30N 38°19' E 024°50'5 9.7
2017-Aug-12 08:00N 38°14' E 024°47'5 9.5
2017-Aug-12 07:29N 38°10' E 024°45'  

Dump ship's entire track history